createdAt,value
2022-07-28T00:00:57.822Z,19.49
2022-07-28T00:03:24.828Z,19.48
2022-07-28T00:05:51.792Z,19.46
2022-07-28T00:08:18.635Z,19.45
2022-07-28T00:10:45.456Z,19.42
2022-07-28T00:13:12.340Z,19.42
2022-07-28T00:15:39.225Z,19.43
2022-07-28T00:18:12.929Z,19.43
2022-07-28T00:20:39.775Z,19.43
2022-07-28T00:23:06.631Z,19.42
2022-07-28T00:25:33.517Z,19.42
2022-07-28T00:28:00.310Z,19.43
2022-07-28T00:30:27.339Z,19.43
2022-07-28T00:32:54.254Z,19.44
2022-07-28T00:35:30.359Z,19.44
2022-07-28T00:37:58.929Z,19.44
2022-07-28T00:40:47.210Z,19.45
2022-07-28T00:43:14.900Z,19.44
2022-07-28T00:45:42.080Z,19.43
2022-07-28T00:48:13.506Z,19.43
2022-07-28T00:50:41.327Z,19.42
2022-07-28T00:53:09.018Z,19.44
2022-07-28T00:56:05.377Z,19.43
2022-07-28T00:58:27.401Z,19.44
2022-07-28T01:00:55.004Z,19.42
2022-07-28T01:03:22.528Z,19.41
2022-07-28T01:05:58.494Z,19.41
2022-07-28T01:08:42.844Z,19.40
2022-07-28T01:11:14.762Z,19.37
2022-07-28T01:14:14.479Z,19.35
2022-07-28T01:17:11.161Z,19.35
2022-07-28T01:19:52.856Z,19.33
2022-07-28T01:22:25.999Z,19.32
2022-07-28T01:25:00.790Z,19.32
2022-07-28T01:27:42.768Z,19.33
2022-07-28T01:30:09.714Z,19.33
2022-07-28T01:32:54.992Z,19.30
2022-07-28T01:35:26.549Z,19.29
2022-07-28T01:38:02.846Z,19.29
2022-07-28T01:40:33.794Z,19.27
2022-07-28T01:43:02.946Z,19.27
2022-07-28T01:45:32.624Z,19.23
2022-07-28T01:48:03.164Z,19.23
2022-07-28T01:50:31.557Z,19.23
2022-07-28T01:52:59.155Z,19.25
2022-07-28T01:55:27.762Z,19.25
2022-07-28T01:58:00.389Z,19.27
2022-07-28T02:00:29.079Z,19.28
2022-07-28T02:02:58.190Z,19.28
2022-07-28T02:05:26.853Z,19.29
2022-07-28T02:08:01.714Z,19.29
2022-07-28T02:10:29.656Z,19.30
2022-07-28T02:13:00.213Z,19.31
2022-07-28T02:15:28.070Z,19.31
2022-07-28T02:18:00.595Z,19.30
2022-07-28T02:20:29.173Z,19.33
2022-07-28T02:22:58.050Z,19.35
2022-07-28T02:25:25.749Z,19.36
2022-07-28T02:28:02.372Z,19.37
2022-07-28T02:30:58.450Z,19.39
2022-07-28T02:33:57.866Z,19.36
2022-07-28T02:36:20.777Z,19.37
2022-07-28T02:38:51.200Z,19.37
2022-07-28T02:41:24.846Z,19.37
2022-07-28T02:44:01.054Z,19.39
2022-07-28T02:46:52.497Z,19.39
2022-07-28T02:49:28.675Z,19.39
2022-07-28T02:51:56.951Z,19.39
2022-07-28T02:54:26.177Z,19.40
2022-07-28T02:56:54.316Z,19.40
2022-07-28T02:59:22.441Z,19.39
2022-07-28T03:01:51.078Z,19.40
2022-07-28T03:04:39.064Z,19.40
2022-07-28T03:07:06.915Z,19.40
2022-07-28T03:09:45.891Z,19.39
2022-07-28T03:12:12.859Z,19.40
2022-07-28T03:14:39.955Z,19.41
2022-07-28T03:17:07.474Z,19.42
2022-07-28T03:19:35.011Z,19.43
2022-07-28T03:22:02.222Z,19.43
2022-07-28T03:24:34.299Z,19.43
2022-07-28T03:27:34.046Z,19.43
2022-07-28T03:30:09.904Z,19.43
2022-07-28T03:32:41.624Z,19.42
2022-07-28T03:35:09.318Z,19.42
2022-07-28T03:37:59.676Z,19.44
2022-07-28T03:40:32.250Z,19.41
2022-07-28T03:43:03.718Z,19.39
2022-07-28T03:45:33.204Z,19.39
2022-07-28T03:48:01.053Z,19.41
2022-07-28T03:50:30.856Z,19.43
2022-07-28T03:52:58.956Z,19.44
2022-07-28T03:55:26.957Z,19.42
2022-07-28T03:58:00.038Z,19.42
2022-07-28T04:00:27.252Z,19.43
2022-07-28T04:02:54.145Z,19.41
2022-07-28T04:05:21.158Z,19.42
2022-07-28T04:07:48.200Z,19.44
2022-07-28T04:10:17.307Z,19.47
2022-07-28T04:12:51.613Z,19.46
2022-07-28T04:15:20.130Z,19.45
2022-07-28T04:17:53.270Z,19.45
2022-07-28T04:20:23.129Z,19.45
2022-07-28T04:22:51.133Z,19.46
2022-07-28T04:25:20.941Z,19.46
2022-07-28T04:27:48.386Z,19.48
2022-07-28T04:30:21.092Z,19.47
2022-07-28T04:32:48.687Z,19.47
2022-07-28T04:35:17.692Z,19.43
2022-07-28T04:37:46.216Z,19.41
2022-07-28T04:40:14.289Z,19.42
2022-07-28T04:42:42.400Z,19.42
2022-07-28T04:45:11.953Z,19.41
2022-07-28T04:47:40.251Z,19.43
2022-07-28T04:50:10.689Z,19.42
2022-07-28T04:52:38.631Z,19.42
2022-07-28T04:55:07.061Z,19.45
2022-07-28T04:57:34.446Z,19.46
2022-07-28T05:00:05.251Z,19.50
2022-07-28T05:02:33.360Z,19.50
2022-07-28T05:05:00.417Z,19.51
2022-07-28T05:07:27.339Z,19.50
2022-07-28T05:09:54.328Z,19.49
2022-07-28T05:12:21.590Z,19.49
2022-07-28T05:14:49.148Z,19.49
2022-07-28T05:17:15.987Z,19.50
2022-07-28T05:19:42.980Z,19.51
2022-07-28T05:22:09.845Z,19.53
2022-07-28T05:24:36.726Z,19.51
2022-07-28T05:27:03.698Z,19.50
2022-07-28T05:29:40.485Z,19.50
2022-07-28T05:32:17.187Z,19.51
2022-07-28T05:34:45.630Z,19.55
2022-07-28T05:37:12.634Z,19.54
2022-07-28T05:39:39.649Z,19.56
2022-07-28T05:42:06.686Z,19.57
2022-07-28T05:44:37.801Z,19.58
2022-07-28T05:47:06.073Z,19.58
2022-07-28T05:49:33.956Z,19.58
2022-07-28T05:52:01.380Z,19.59
2022-07-28T05:54:28.678Z,19.59
2022-07-28T05:56:55.518Z,19.61
2022-07-28T05:59:22.838Z,19.62
2022-07-28T06:01:50.092Z,19.66
2022-07-28T06:04:26.816Z,19.69
2022-07-28T06:06:55.030Z,19.75
2022-07-28T06:09:21.991Z,19.80
2022-07-28T06:11:50.927Z,19.84
2022-07-28T06:14:18.939Z,19.87
2022-07-28T06:16:51.322Z,19.89
2022-07-28T06:19:19.156Z,19.93
2022-07-28T06:21:46.180Z,19.95
2022-07-28T06:24:13.882Z,19.95
2022-07-28T06:26:44.687Z,19.94
2022-07-28T06:29:12.669Z,19.92
2022-07-28T06:31:40.324Z,19.93
2022-07-28T06:34:07.446Z,19.92
2022-07-28T06:36:34.626Z,19.95
2022-07-28T06:39:01.803Z,19.96
2022-07-28T06:41:29.075Z,19.99
2022-07-28T06:43:56.079Z,20.02
2022-07-28T06:46:23.712Z,20.03
2022-07-28T06:48:50.752Z,20.03
2022-07-28T06:51:20.159Z,20.05
2022-07-28T06:53:48.911Z,20.05
2022-07-28T06:56:16.966Z,20.05
2022-07-28T06:58:47.149Z,20.05
2022-07-28T07:01:17.210Z,20.06
2022-07-28T07:03:44.528Z,20.09
2022-07-28T07:06:11.658Z,20.07
2022-07-28T07:08:38.987Z,20.08
2022-07-28T07:11:06.039Z,20.10
2022-07-28T07:13:33.469Z,20.13
2022-07-28T07:16:01.045Z,20.14
2022-07-28T07:18:28.659Z,20.16
2022-07-28T07:20:58.219Z,20.18
2022-07-28T07:23:25.745Z,20.23
2022-07-28T07:25:53.484Z,20.24
2022-07-28T07:28:22.076Z,20.27
2022-07-28T07:30:49.292Z,20.27
2022-07-28T07:33:16.898Z,20.30
2022-07-28T07:35:44.089Z,20.34
2022-07-28T07:38:14.175Z,20.38
2022-07-28T07:40:41.244Z,20.40
2022-07-28T07:43:08.136Z,20.42
2022-07-28T07:45:35.814Z,20.43
2022-07-28T07:48:10.491Z,20.46
2022-07-28T07:50:38.796Z,20.49
2022-07-28T07:53:06.405Z,20.55
2022-07-28T07:55:37.391Z,20.58
2022-07-28T07:58:09.743Z,20.62
2022-07-28T08:00:41.471Z,20.65
2022-07-28T08:03:11.456Z,20.65
2022-07-28T08:05:41.425Z,20.63
2022-07-28T08:08:12.378Z,20.62
2022-07-28T08:10:40.501Z,20.62
2022-07-28T08:13:08.258Z,20.62
2022-07-28T08:15:35.696Z,20.66
2022-07-28T08:18:09.531Z,20.67
2022-07-28T08:20:36.513Z,20.69
2022-07-28T08:23:05.048Z,20.69
2022-07-28T08:25:35.638Z,20.73
2022-07-28T08:28:09.729Z,20.75
2022-07-28T08:30:36.740Z,20.78
2022-07-28T08:33:03.914Z,20.79
2022-07-28T08:35:34.669Z,20.81
2022-07-28T08:38:11.499Z,20.83
2022-07-28T08:40:40.023Z,20.86
2022-07-28T08:43:18.512Z,20.91
2022-07-28T08:45:52.555Z,20.94
2022-07-28T08:48:35.945Z,20.96
2022-07-28T08:51:10.404Z,21.00
2022-07-28T08:53:39.631Z,21.04
2022-07-28T08:56:08.967Z,21.08
2022-07-28T08:58:38.184Z,21.12
2022-07-28T09:01:11.355Z,21.17
2022-07-28T09:03:40.274Z,21.20
2022-07-28T09:06:08.206Z,21.21
2022-07-28T09:08:46.193Z,21.20
2022-07-28T09:11:13.168Z,21.22
2022-07-28T09:13:40.178Z,21.27
2022-07-28T09:16:07.224Z,21.36
2022-07-28T09:18:34.094Z,21.48
2022-07-28T09:21:01.326Z,21.61
2022-07-28T09:23:44.533Z,21.73
2022-07-28T09:26:12.952Z,21.85
2022-07-28T09:28:52.522Z,21.87
2022-07-28T09:31:20.305Z,21.86
2022-07-28T09:33:57.571Z,21.85
2022-07-28T09:36:24.936Z,21.82
2022-07-28T09:38:52.630Z,21.80
2022-07-28T09:41:22.108Z,21.77
2022-07-28T09:43:54.793Z,21.77
2022-07-28T09:46:29.443Z,21.76
2022-07-28T09:48:59.151Z,21.77
2022-07-28T09:51:31.279Z,21.75
2022-07-28T09:54:16.463Z,21.75
2022-07-28T09:56:45.856Z,21.75
2022-07-28T09:59:14.562Z,21.76
2022-07-28T10:01:59.925Z,21.83
2022-07-28T10:04:40.596Z,21.92
2022-07-28T10:07:17.387Z,22.00
2022-07-28T10:09:55.369Z,22.09
2022-07-28T10:12:25.020Z,22.22
2022-07-28T10:14:55.721Z,22.31
2022-07-28T10:17:31.728Z,22.34
2022-07-28T10:20:05.501Z,22.39
2022-07-28T10:22:43.108Z,22.44
2022-07-28T10:25:12.920Z,22.47
2022-07-28T10:27:42.015Z,22.49
2022-07-28T10:30:09.692Z,22.50
2022-07-28T10:32:45.337Z,22.51
2022-07-28T10:35:14.808Z,22.50
2022-07-28T10:38:12.815Z,22.48
2022-07-28T10:40:45.238Z,22.43
2022-07-28T10:43:12.876Z,22.41
2022-07-28T10:46:04.984Z,22.43
2022-07-28T10:48:29.344Z,22.48
2022-07-28T10:50:57.750Z,22.53
2022-07-28T10:53:33.469Z,22.53
2022-07-28T10:56:10.042Z,22.51
2022-07-28T10:58:49.779Z,22.52
2022-07-28T11:01:53.192Z,22.52
2022-07-28T11:04:41.869Z,22.57
2022-07-28T11:07:13.217Z,22.62
2022-07-28T11:09:40.689Z,22.67
2022-07-28T11:12:09.692Z,22.71
2022-07-28T11:14:39.490Z,22.70
2022-07-28T11:17:10.197Z,22.68
2022-07-28T11:20:16.506Z,22.63
2022-07-28T11:22:34.390Z,22.64
2022-07-28T11:25:21.212Z,22.59
2022-07-28T11:27:59.598Z,22.63
2022-07-28T11:30:26.651Z,22.65
2022-07-28T11:32:56.285Z,22.64
2022-07-28T11:35:27.461Z,22.66
2022-07-28T11:38:08.977Z,22.68
2022-07-28T11:40:41.980Z,22.71
2022-07-28T11:43:36.608Z,22.72
2022-07-28T11:46:09.837Z,22.76
2022-07-28T11:48:45.216Z,22.81
2022-07-28T11:51:13.474Z,22.81
2022-07-28T11:53:50.876Z,22.85
2022-07-28T11:56:25.641Z,22.87
2022-07-28T11:59:01.300Z,22.90
2022-07-28T12:01:31.956Z,22.93
2022-07-28T12:04:01.842Z,22.92
2022-07-28T12:06:39.060Z,22.94
2022-07-28T12:09:09.766Z,22.97
2022-07-28T12:11:38.799Z,22.98
2022-07-28T12:14:11.802Z,23.01
2022-07-28T12:16:43.496Z,23.00
2022-07-28T12:19:14.560Z,22.99
2022-07-28T12:21:53.169Z,22.95
2022-07-28T12:24:30.993Z,22.89
2022-07-28T12:26:59.915Z,22.89
2022-07-28T12:29:35.545Z,22.83
2022-07-28T12:32:10.216Z,22.77
2022-07-28T12:34:40.666Z,22.79
2022-07-28T12:37:12.687Z,22.81
2022-07-28T12:39:42.832Z,22.85
2022-07-28T12:42:11.932Z,22.86
2022-07-28T12:44:40.240Z,22.87
2022-07-28T12:47:09.465Z,22.83
2022-07-28T12:49:37.466Z,22.82
2022-07-28T12:52:21.616Z,22.87
2022-07-28T12:54:54.187Z,22.92
2022-07-28T12:58:03.746Z,22.94
2022-07-28T13:00:33.731Z,22.96
2022-07-28T13:03:19.875Z,22.97
2022-07-28T13:06:05.052Z,22.88
2022-07-28T13:08:44.726Z,22.85
2022-07-28T13:11:42.053Z,22.87
2022-07-28T13:14:01.868Z,22.87
2022-07-28T13:16:29.963Z,22.92
2022-07-28T13:19:02.859Z,22.93
2022-07-28T13:21:58.393Z,22.98
2022-07-28T13:24:29.709Z,23.02
2022-07-28T13:26:58.519Z,23.07
2022-07-28T13:29:26.483Z,23.12
2022-07-28T13:31:55.156Z,23.15
2022-07-28T13:34:22.327Z,23.21
2022-07-28T13:36:49.294Z,23.24
2022-07-28T13:39:16.501Z,23.29
2022-07-28T13:41:56.705Z,23.33
2022-07-28T13:44:25.824Z,23.39
2022-07-28T13:46:53.378Z,23.39
2022-07-28T13:49:22.968Z,23.42
2022-07-28T13:51:51.255Z,23.41
2022-07-28T13:54:19.225Z,23.48
2022-07-28T13:56:46.879Z,23.45
2022-07-28T13:59:14.029Z,23.42
2022-07-28T14:01:42.328Z,23.44
2022-07-28T14:04:15.050Z,23.42
2022-07-28T14:06:45.288Z,23.43
2022-07-28T14:09:18.785Z,23.42
2022-07-28T14:11:50.153Z,23.39
2022-07-28T14:14:25.537Z,23.40
2022-07-28T14:16:54.342Z,23.39
2022-07-28T14:19:23.641Z,23.38
2022-07-28T14:22:13.835Z,23.35
2022-07-28T14:24:44.029Z,23.33
2022-07-28T14:27:14.103Z,23.28
2022-07-28T14:29:41.287Z,23.26
2022-07-28T14:32:08.179Z,23.25
2022-07-28T14:34:35.805Z,23.22
2022-07-28T14:37:08.985Z,23.19
2022-07-28T14:39:38.358Z,23.17
2022-07-28T14:42:06.465Z,23.14
2022-07-28T14:44:33.983Z,23.10
2022-07-28T14:47:01.402Z,23.08
2022-07-28T14:49:28.394Z,23.08
2022-07-28T14:51:57.841Z,23.07
2022-07-28T14:54:24.742Z,23.06
2022-07-28T14:56:52.162Z,23.08
2022-07-28T14:59:19.363Z,23.04
2022-07-28T15:01:48.894Z,23.03
2022-07-28T15:04:16.807Z,23.00
2022-07-28T15:06:44.267Z,23.00
2022-07-28T15:09:11.466Z,23.02
2022-07-28T15:11:39.982Z,23.02
2022-07-28T15:14:07.514Z,23.05
2022-07-28T15:16:34.383Z,23.06
2022-07-28T15:19:01.556Z,23.07
2022-07-28T15:21:34.290Z,23.06
2022-07-28T15:24:03.805Z,23.07
2022-07-28T15:26:30.775Z,23.10
2022-07-28T15:28:57.636Z,23.12
2022-07-28T15:31:27.270Z,23.13
2022-07-28T15:33:57.677Z,23.14
2022-07-28T15:36:25.835Z,23.15
2022-07-28T15:38:53.825Z,23.14
2022-07-28T15:41:21.070Z,23.12
2022-07-28T15:43:47.906Z,23.09
2022-07-28T15:46:14.942Z,23.04
2022-07-28T15:48:44.010Z,23.02
2022-07-28T15:51:11.458Z,23.00
2022-07-28T15:53:39.211Z,22.99
2022-07-28T15:56:06.554Z,22.96
2022-07-28T15:58:33.499Z,22.97
2022-07-28T16:01:01.607Z,22.99
2022-07-28T16:03:30.266Z,22.99
2022-07-28T16:05:59.014Z,23.01
2022-07-28T16:08:26.666Z,23.01
2022-07-28T16:10:54.718Z,23.01
2022-07-28T16:13:36.377Z,23.00
2022-07-28T16:16:09.314Z,22.93
2022-07-28T16:18:38.263Z,22.93
2022-07-28T16:21:06.631Z,22.93
2022-07-28T16:23:34.093Z,22.94
2022-07-28T16:26:01.450Z,22.93
2022-07-28T16:28:28.566Z,22.88
2022-07-28T16:30:55.497Z,22.82
2022-07-28T16:33:22.454Z,22.81
2022-07-28T16:35:49.506Z,22.81
2022-07-28T16:38:19.415Z,22.80
2022-07-28T16:40:46.449Z,22.81
2022-07-28T16:43:13.841Z,22.81
2022-07-28T16:45:41.190Z,22.80
2022-07-28T16:48:09.136Z,22.80
2022-07-28T16:50:36.500Z,22.82
2022-07-28T16:53:06.923Z,22.82
2022-07-28T16:55:33.965Z,22.83
2022-07-28T16:58:06.650Z,22.83
2022-07-28T17:00:33.709Z,22.85
2022-07-28T17:03:01.157Z,22.83
2022-07-28T17:05:27.993Z,22.80
2022-07-28T17:08:08.518Z,22.76
2022-07-28T17:10:35.712Z,22.75
2022-07-28T17:13:03.437Z,22.73
2022-07-28T17:15:30.515Z,22.69
2022-07-28T17:18:08.024Z,22.65
2022-07-28T17:20:36.012Z,22.63
2022-07-28T17:23:04.495Z,22.61
2022-07-28T17:26:16.186Z,22.56
2022-07-28T17:28:18.739Z,22.53
2022-07-28T17:30:46.139Z,22.53
2022-07-28T17:33:13.186Z,22.51
2022-07-28T17:35:40.308Z,22.53
2022-07-28T17:38:16.375Z,22.54
2022-07-28T17:40:44.884Z,22.55
2022-07-28T17:43:12.460Z,22.55
2022-07-28T17:45:40.076Z,22.56
2022-07-28T17:48:14.873Z,22.57
2022-07-28T17:50:44.695Z,22.57
2022-07-28T17:53:11.689Z,22.54
2022-07-28T17:56:00.402Z,22.52
2022-07-28T17:58:43.057Z,22.50
2022-07-28T18:01:12.582Z,22.47
2022-07-28T18:03:58.164Z,22.43
2022-07-28T18:06:35.644Z,22.42
2022-07-28T18:09:06.539Z,22.39
2022-07-28T18:11:56.693Z,22.37
2022-07-28T18:14:27.583Z,22.35
2022-07-28T18:16:55.144Z,22.36
2022-07-28T18:19:22.718Z,22.36
2022-07-28T18:21:49.996Z,22.32
2022-07-28T18:24:18.565Z,22.32
2022-07-28T18:26:45.810Z,22.29
2022-07-28T18:29:12.833Z,22.25
2022-07-28T18:31:45.868Z,22.23
2022-07-28T18:34:14.414Z,22.20
2022-07-28T18:36:41.853Z,22.18
2022-07-28T18:39:09.027Z,22.15
2022-07-28T18:41:46.876Z,22.13
2022-07-28T18:44:18.053Z,22.11
2022-07-28T18:46:46.074Z,22.09
2022-07-28T18:49:13.597Z,22.08
2022-07-28T18:51:45.377Z,22.09
2022-07-28T18:54:14.299Z,22.09
2022-07-28T18:56:41.891Z,22.07
2022-07-28T18:59:08.912Z,22.06
2022-07-28T19:01:35.982Z,22.03
2022-07-28T19:04:03.389Z,22.01
2022-07-28T19:06:30.367Z,21.99
2022-07-28T19:08:57.223Z,21.97
2022-07-28T19:11:24.292Z,21.94
2022-07-28T19:13:51.338Z,21.90
2022-07-28T19:16:19.783Z,21.89
2022-07-28T19:18:46.904Z,21.88
2022-07-28T19:21:14.053Z,21.85
2022-07-28T19:23:41.175Z,21.80
2022-07-28T19:26:08.319Z,21.78
2022-07-28T19:28:36.169Z,21.75
2022-07-28T19:31:10.662Z,21.74
2022-07-28T19:33:40.193Z,21.71
2022-07-28T19:36:13.907Z,21.68
2022-07-28T19:38:41.640Z,21.67
2022-07-28T19:41:09.877Z,21.65
2022-07-28T19:43:36.937Z,21.64
2022-07-28T19:46:04.120Z,21.62
2022-07-28T19:48:31.453Z,21.59
2022-07-28T19:50:58.764Z,21.57
2022-07-28T19:53:32.049Z,21.56
2022-07-28T19:55:59.669Z,21.54
2022-07-28T19:58:27.176Z,21.52
2022-07-28T20:00:56.434Z,21.52
2022-07-28T20:04:01.614Z,21.52
2022-07-28T20:06:12.082Z,21.48
2022-07-28T20:08:40.548Z,21.47
2022-07-28T20:11:08.286Z,21.43
2022-07-28T20:13:35.131Z,21.42
2022-07-28T20:16:02.018Z,21.39
2022-07-28T20:18:28.999Z,21.38
2022-07-28T20:20:55.823Z,21.37
2022-07-28T20:23:22.731Z,21.34
2022-07-28T20:25:49.590Z,21.33
2022-07-28T20:28:16.655Z,21.29
2022-07-28T20:30:43.656Z,21.24
2022-07-28T20:33:10.472Z,21.21
2022-07-28T20:35:37.595Z,21.19
2022-07-28T20:38:06.164Z,21.13
2022-07-28T20:40:33.177Z,21.12
2022-07-28T20:43:00.038Z,21.10
2022-07-28T20:45:26.925Z,21.09
2022-07-28T20:47:59.707Z,21.04
2022-07-28T20:50:26.786Z,21.00
2022-07-28T20:52:53.623Z,20.97
2022-07-28T20:55:21.057Z,20.99
2022-07-28T20:57:53.705Z,20.99
2022-07-28T21:00:20.988Z,20.98
2022-07-28T21:02:47.894Z,20.97
2022-07-28T21:05:26.859Z,20.93
2022-07-28T21:08:06.529Z,20.89
2022-07-28T21:10:36.845Z,20.85
2022-07-28T21:13:03.732Z,20.83
2022-07-28T21:15:30.896Z,20.83
2022-07-28T21:18:00.428Z,20.82
2022-07-28T21:20:27.346Z,20.81
2022-07-28T21:22:54.218Z,20.79
2022-07-28T21:25:21.646Z,20.78
2022-07-28T21:28:06.958Z,20.76
2022-07-28T21:30:33.754Z,20.75
2022-07-28T21:33:00.706Z,20.71
2022-07-28T21:35:27.559Z,20.67
2022-07-28T21:37:59.660Z,20.64
2022-07-28T21:40:26.599Z,20.58
2022-07-28T21:42:53.502Z,20.55
2022-07-28T21:45:20.354Z,20.55
2022-07-28T21:47:47.878Z,20.55
2022-07-28T21:50:15.186Z,20.54
2022-07-28T21:52:42.316Z,20.54
2022-07-28T21:55:09.804Z,20.54
2022-07-28T21:57:36.601Z,20.53
2022-07-28T22:00:07.471Z,20.49
2022-07-28T22:02:34.551Z,20.49
2022-07-28T22:05:01.482Z,20.49
2022-07-28T22:07:28.545Z,20.47
2022-07-28T22:09:55.382Z,20.45
2022-07-28T22:12:22.699Z,20.44
2022-07-28T22:14:49.541Z,20.45
2022-07-28T22:17:17.226Z,20.44
2022-07-28T22:19:44.065Z,20.42
2022-07-28T22:22:11.440Z,20.38
2022-07-28T22:24:38.288Z,20.38
2022-07-28T22:27:05.398Z,20.36
2022-07-28T22:29:32.201Z,20.33
2022-07-28T22:31:59.691Z,20.33
2022-07-28T22:34:26.860Z,20.31
2022-07-28T22:36:53.804Z,20.30
2022-07-28T22:39:20.725Z,20.27
2022-07-28T22:41:48.210Z,20.25
2022-07-28T22:44:15.509Z,20.21
2022-07-28T22:46:42.611Z,20.22
2022-07-28T22:49:10.359Z,20.19
2022-07-28T22:51:37.260Z,20.13
2022-07-28T22:54:04.201Z,20.12
2022-07-28T22:56:34.986Z,20.10
2022-07-28T22:59:04.989Z,20.06
2022-07-28T23:01:32.010Z,20.06
2022-07-28T23:03:58.984Z,20.05
2022-07-28T23:06:26.584Z,20.08
2022-07-28T23:08:53.833Z,20.08
2022-07-28T23:11:20.968Z,20.10
2022-07-28T23:13:47.909Z,20.08
2022-07-28T23:16:17.193Z,20.06
2022-07-28T23:18:44.623Z,20.02
2022-07-28T23:21:12.492Z,20.00
2022-07-28T23:23:39.708Z,19.94
2022-07-28T23:26:06.656Z,19.92
2022-07-28T23:28:33.574Z,19.92
2022-07-28T23:31:00.774Z,19.90
2022-07-28T23:33:55.021Z,19.86
2022-07-28T23:36:16.975Z,19.89
2022-07-28T23:38:54.834Z,19.86
2022-07-28T23:41:21.760Z,19.84
2022-07-28T23:43:48.688Z,19.83
2022-07-28T23:46:15.748Z,19.82
2022-07-28T23:48:42.998Z,19.76
2022-07-28T23:51:09.997Z,19.67
2022-07-28T23:53:37.902Z,19.63
2022-07-28T23:56:05.082Z,19.61
2022-07-28T23:58:31.928Z,19.56
